Get Adobe Flash player

РУС

ENG

 
  Pireps - S7
 

Рейс SBIS7 1

  • Выполнял: Andrew Vyunov
  • Аэропорт отправления: Domodedovo Airport (UUDD)
  • Аэропорт назначения: Nizhny Novgorod (UWGG)
  • Тип ВС: A319-112 (VP-BHJ)
  • Время полёта: 01.06
  • Дата полёта: 16.06.2019
  • Маршрут: WT SF1D SF A930 RUSAK A244 MB
  • Статус: Ожидает рассмотрения

Детали полёта
Gross Revenue:
(102 load / $ 220.00 per unit
$ 22, 440.00
Fuel Cost:
(17683 fuel used @ 5.1 / unit)
$ 90, 183.30


Дополнительная информация о полёте:

Лог

Aircraft Used in flight is Airbus A319-114 S7 Airlines - VP-BTV v.2
12:46 Boarding
12:46 Brakes are On
12:52 Strobe Lights ON at 600 AGL
12:52 Beacon Lights ON at 600 AGL
12:52 Navigation Lights ON at 600 AGL
12:52 Engine 1 Started
12:52 Engine 2 Started
12:52 Brakes are Released
12:52 Pushing back
12:54 Taxi Lights ON at 600 AGL
13:01Flaps 1 Selected at 600ft and 0kts
13:02Flaps 2 Selected at 600ft and 0kts
13:02Flaps 3 Selected at 600ft and 0kts
13:02Flaps 4 Selected at 600ft and 0kts
13:02Flaps 5 Selected at 600ft and 0kts
13:02 Landing Lights ON at 600 AGL
13:03 You Took off @ 165 Knots and Flaps at Position 5
Departure Weather
UUDD 160930Z 34006MPS 310V010 9999 SCT036 22/12 Q1014 R88/CLRD70 NOSIG\r\n
13:04 Landing Gear Up @ 182 Knots and 990 Feet
13:04Flaps 4 Selected at 1640ft and 203kts
13:05Flaps 3 Selected at 2780ft and 184kts
13:05Flaps Retracted at 3040ft and 182kts
13:05 Taxi Lights OFF at 3630 AGL
13:05 Landing Lights OFF at 3660 AGL
13:36 Landing Gear Down @ 279 Knots and 14070 Feet
13:36Flaps 1 Selected at 13130ft and 252kts
13:41 Landing Lights ON at 3300 AGL
13:41 Taxi Lights ON at 3270 AGL
13:43Flaps 2 Selected at 1650ft and 208kts
13:43Flaps 5 Selected at 1650ft and 208kts
13:46 You Landed @ 136 Knots and with -150 Vertical Speed
Arrival Weather
UWGG 160930Z 24002MPS 140V300 9999 SCT040 21/06 Q1012 R36R/090070 NOSIG\r\n
13:46Flaps Retracted at 260ft and 56kts
13:47 Taxiing to gate
13:48 Landing Lights OFF at 260 AGL
13:50 Brakes are On
13:50 Landing Lights ON at 260 AGL
13:51 Engine 1 Stoped
13:51 Engine 2 Stoped
13:51 Strobe Lights OFF at 260 AGL
Pirep logged with S7 Tracking 1.0.0.13



Общая оценка полета : 100%




Route Map



 
 
   
 
Новости

26.04.2018 - Полеты в X-PLANE

Наш клиент S7 Pad поддерживает полеты как в MFSX, Prepar3d V4, так и в X-PLANE 10 и 11 версиях!
На нашем сайте в разреде загруки есть плагин XPUIPIC for X-plane.
Приятных Вам полетов и мягких посадок!

   
 
Авторизация






Регистрация

Восстановить пароль?

Мы в соц. сетях

      



   
  TeamSpeak3 ts.va-s7.ru


   
 

   
 



   
 


Яндекс.Метрика

www.va-s7.ru 2011-2019
Все права защищены.



Минуточку внимания!
Мы не имеем отношения к торговым маркам "S7" и "Globus" и их представителям.
Эмблемы на сайте являются собственностью соответствующих компаний.

аэронавигационная метеорологическая и любая другая информация с данного ресурса ни в коем случае не должна использоваться для реальных полетов